createdAt,value
2023-05-21T00:02:00.907Z,101140.00
2023-05-21T00:04:31.721Z,101121.00
2023-05-21T00:06:59.790Z,101150.00
2023-05-21T00:09:29.551Z,101126.00
2023-05-21T00:11:57.862Z,101141.00
2023-05-21T00:14:26.012Z,101148.00
2023-05-21T00:16:54.060Z,101116.00
2023-05-21T00:19:22.439Z,101124.00
2023-05-21T00:21:53.907Z,101136.00
2023-05-21T00:24:22.156Z,101093.00
2023-05-21T00:26:51.509Z,101126.00
2023-05-21T00:29:20.284Z,101132.00
2023-05-21T00:31:48.774Z,101107.00
2023-05-21T00:34:18.223Z,101093.00
2023-05-21T00:36:47.103Z,101103.00
2023-05-21T00:39:15.650Z,101104.00
2023-05-21T00:41:46.722Z,101110.00
2023-05-21T00:44:17.261Z,101108.00
2023-05-21T00:46:48.947Z,101063.00
2023-05-21T00:49:17.900Z,101115.00
2023-05-21T00:51:49.826Z,101045.00
2023-05-21T00:54:20.708Z,101105.00
2023-05-21T00:56:49.979Z,101074.00
2023-05-21T00:59:20.145Z,101096.00
2023-05-21T01:01:54.109Z,101051.00
2023-05-21T01:04:22.410Z,101030.00
2023-05-21T01:06:56.659Z,101067.00
2023-05-21T01:09:25.351Z,101047.00
2023-05-21T01:11:57.886Z,101107.00
2023-05-21T01:14:28.238Z,101070.00
2023-05-21T01:16:56.930Z,101068.00
2023-05-21T01:19:26.124Z,101104.00
2023-05-21T01:22:01.598Z,101086.00
2023-05-21T01:24:31.510Z,101078.00
2023-05-21T01:27:00.376Z,101095.00
2023-05-21T01:29:28.935Z,101073.00
2023-05-21T01:32:04.206Z,101091.00
2023-05-21T01:34:36.653Z,101050.00
2023-05-21T01:37:15.728Z,101053.00
2023-05-21T01:39:49.205Z,101089.00
2023-05-21T01:42:20.033Z,101078.00
2023-05-21T01:44:48.829Z,101085.00
2023-05-21T01:47:19.148Z,101090.00
2023-05-21T01:49:47.846Z,101088.00
2023-05-21T01:52:16.086Z,101070.00
2023-05-21T01:54:45.537Z,101078.00
2023-05-21T01:57:13.808Z,101062.00
2023-05-21T01:59:42.443Z,101037.00
2023-05-21T02:02:10.549Z,101075.00
2023-05-21T02:04:41.555Z,101081.00
2023-05-21T02:07:10.387Z,101061.00
2023-05-21T02:09:38.360Z,101038.00
2023-05-21T02:12:09.978Z,101085.00
2023-05-21T02:14:38.514Z,101046.00
2023-05-21T02:17:08.193Z,101052.00
2023-05-21T02:19:36.898Z,101073.00
2023-05-21T02:22:05.146Z,101026.00
2023-05-21T02:24:33.327Z,101040.00
2023-05-21T02:27:01.388Z,101074.00
2023-05-21T02:29:30.985Z,101078.00
2023-05-21T02:31:59.079Z,101064.00
2023-05-21T02:34:30.533Z,101037.00
2023-05-21T02:36:58.931Z,101074.00
2023-05-21T02:39:27.391Z,101029.00
2023-05-21T02:41:55.363Z,101067.00
2023-05-21T02:44:24.361Z,101064.00
2023-05-21T02:46:53.900Z,101067.00
2023-05-21T02:49:22.022Z,101051.00
2023-05-21T02:51:50.054Z,101050.00
2023-05-21T02:54:18.061Z,101054.00
2023-05-21T02:56:46.276Z,101059.00
2023-05-21T02:59:14.397Z,101050.00
2023-05-21T03:01:45.543Z,101064.00
2023-05-21T03:04:15.312Z,101058.00
2023-05-21T03:06:43.318Z,101037.00
2023-05-21T03:09:11.389Z,101046.00
2023-05-21T03:11:39.470Z,101044.00
2023-05-21T03:14:09.969Z,101049.00
2023-05-21T03:16:38.219Z,101036.00
2023-05-21T03:19:06.667Z,101037.00
2023-05-21T03:21:36.828Z,101028.00
2023-05-21T03:24:05.998Z,101023.00
2023-05-21T03:26:34.041Z,101010.00
2023-05-21T03:29:02.420Z,101036.00
2023-05-21T03:31:30.386Z,101026.00
2023-05-21T03:33:58.320Z,101016.00
2023-05-21T03:36:26.315Z,101030.00
2023-05-21T03:38:55.757Z,101021.00
2023-05-21T03:41:23.816Z,101027.00
2023-05-21T03:43:51.735Z,101033.00
2023-05-21T03:46:19.721Z,101022.00
2023-05-21T03:48:47.625Z,101019.00
2023-05-21T03:51:16.064Z,101018.00
2023-05-21T03:53:44.012Z,101027.00
2023-05-21T03:56:13.513Z,101029.00
2023-05-21T03:58:41.546Z,101045.00
2023-05-21T04:01:10.823Z,101033.00
2023-05-21T04:03:40.754Z,101038.00
2023-05-21T04:06:10.368Z,101036.00
2023-05-21T04:08:38.603Z,101039.00
2023-05-21T04:11:06.632Z,101035.00
2023-05-21T04:13:36.287Z,101031.00
2023-05-21T04:16:04.286Z,101042.00
2023-05-21T04:18:34.332Z,101010.00
2023-05-21T04:21:02.493Z,101030.00
2023-05-21T04:23:30.319Z,101044.00
2023-05-21T04:25:58.276Z,101036.00
2023-05-21T04:28:28.973Z,101025.00
2023-05-21T04:30:58.784Z,101030.00
2023-05-21T04:33:27.160Z,101033.00
2023-05-21T04:35:55.234Z,101037.00
2023-05-21T04:38:23.276Z,101031.00
2023-05-21T04:40:52.090Z,101026.00
2023-05-21T04:43:25.653Z,101039.00
2023-05-21T04:45:54.862Z,101018.00
2023-05-21T04:48:25.726Z,101035.00
2023-05-21T04:50:54.237Z,101035.00
2023-05-21T04:53:22.297Z,101020.00
2023-05-21T04:55:50.314Z,101023.00
2023-05-21T04:58:19.396Z,101038.00
2023-05-21T05:00:47.569Z,101034.00
2023-05-21T05:03:15.808Z,101039.00
2023-05-21T05:05:45.295Z,101030.00
2023-05-21T05:08:15.519Z,101042.00
2023-05-21T05:10:43.977Z,101025.00
2023-05-21T05:13:15.113Z,101029.00
2023-05-21T05:15:43.035Z,101022.00
2023-05-21T05:18:11.679Z,101025.00
2023-05-21T05:20:39.683Z,101032.00
2023-05-21T05:23:09.003Z,101004.00
2023-05-21T05:25:37.358Z,101022.00
2023-05-21T05:28:05.950Z,101032.00
2023-05-21T05:30:34.173Z,101034.00
2023-05-21T05:33:02.230Z,101025.00
2023-05-21T05:35:30.328Z,101030.00
2023-05-21T05:37:58.244Z,101023.00
2023-05-21T05:40:27.845Z,101030.00
2023-05-21T05:42:55.786Z,101015.00
2023-05-21T05:45:23.771Z,101040.00
2023-05-21T05:47:51.838Z,101040.00
2023-05-21T05:50:19.990Z,101031.00
2023-05-21T05:52:48.228Z,101022.00
2023-05-21T05:55:16.339Z,101019.00
2023-05-21T05:57:45.855Z,101034.00
2023-05-21T06:00:16.009Z,101032.00
2023-05-21T06:02:44.095Z,101043.00
2023-05-21T06:05:12.388Z,101037.00
2023-05-21T06:07:42.096Z,101029.00
2023-05-21T06:10:10.889Z,101020.00
2023-05-21T06:12:40.074Z,101007.00
2023-05-21T06:15:10.809Z,101008.00
2023-05-21T06:17:39.176Z,101009.00
2023-05-21T06:20:09.700Z,101040.00
2023-05-21T06:22:38.125Z,101025.00
2023-05-21T06:25:07.207Z,101033.00
2023-05-21T06:27:35.297Z,101020.00
2023-05-21T06:30:03.456Z,101003.00
2023-05-21T06:32:32.995Z,101036.00
2023-05-21T06:35:01.274Z,101019.00
2023-05-21T06:37:29.747Z,101037.00
2023-05-21T06:39:58.091Z,101024.00
2023-05-21T06:42:26.268Z,101039.00
2023-05-21T06:44:54.374Z,101001.00
2023-05-21T06:47:22.706Z,101011.00
2023-05-21T06:49:52.320Z,101037.00
2023-05-21T06:52:20.389Z,101035.00
2023-05-21T06:54:48.402Z,101022.00
2023-05-21T06:57:17.362Z,101025.00
2023-05-21T06:59:45.516Z,101011.00
2023-05-21T07:02:13.482Z,101028.00
2023-05-21T07:04:41.571Z,101004.00
2023-05-21T07:07:11.033Z,101012.00
2023-05-21T07:09:39.216Z,101043.00
2023-05-21T07:12:08.681Z,101030.00
2023-05-21T07:14:36.755Z,101016.00
2023-05-21T07:17:04.929Z,100992.00
2023-05-21T07:19:33.088Z,101012.00
2023-05-21T07:22:01.162Z,101024.00
2023-05-21T07:24:30.786Z,101002.00
2023-05-21T07:26:58.705Z,101008.00
2023-05-21T07:29:28.948Z,101003.00
2023-05-21T07:31:56.921Z,101003.00
2023-05-21T07:34:25.097Z,101004.00
2023-05-21T07:36:53.200Z,100976.00
2023-05-21T07:39:23.945Z,101009.00
2023-05-21T07:41:53.611Z,101014.00
2023-05-21T07:44:21.588Z,101016.00
2023-05-21T07:46:49.802Z,100999.00
2023-05-21T07:49:17.946Z,101015.00
2023-05-21T07:51:53.410Z,100990.00
2023-05-21T07:54:21.584Z,101014.00
2023-05-21T07:56:49.875Z,100986.00
2023-05-21T07:59:19.670Z,101020.00
2023-05-21T08:02:00.015Z,100982.00
2023-05-21T08:04:33.117Z,101013.00
2023-05-21T08:07:01.078Z,101008.00
2023-05-21T08:09:29.448Z,100992.00
2023-05-21T08:11:57.445Z,100999.00
2023-05-21T08:14:26.930Z,101010.00
2023-05-21T08:16:54.993Z,101017.00
2023-05-21T08:19:23.074Z,101006.00
2023-05-21T08:21:52.852Z,101004.00
2023-05-21T08:24:21.150Z,101003.00
2023-05-21T08:26:50.885Z,100990.00
2023-05-21T08:29:19.966Z,101008.00
2023-05-21T08:31:49.554Z,101023.00
2023-05-21T08:34:18.929Z,100997.00
2023-05-21T08:36:48.058Z,101005.00
2023-05-21T08:39:16.041Z,100967.00
2023-05-21T08:41:49.684Z,101017.00
2023-05-21T08:44:22.283Z,101007.00
2023-05-21T08:46:52.367Z,101017.00
2023-05-21T08:49:28.996Z,100988.00
2023-05-21T08:51:57.316Z,100988.00
2023-05-21T08:54:25.327Z,100997.00
2023-05-21T08:56:54.565Z,101001.00
2023-05-21T08:59:23.066Z,100995.00
2023-05-21T09:01:53.984Z,100989.00
2023-05-21T09:04:22.419Z,100995.00
2023-05-21T09:06:51.012Z,100992.00
2023-05-21T09:09:26.938Z,101002.00
2023-05-21T09:11:55.305Z,100983.00
2023-05-21T09:14:24.944Z,100993.00
2023-05-21T09:16:54.495Z,100991.00
2023-05-21T09:19:22.644Z,101001.00
2023-05-21T09:21:52.865Z,100988.00
2023-05-21T09:24:23.691Z,101000.00
2023-05-21T09:26:52.488Z,100985.00
2023-05-21T09:29:20.469Z,101006.00
2023-05-21T09:31:48.405Z,101009.00
2023-05-21T09:34:17.786Z,101004.00
2023-05-21T09:36:46.041Z,101004.00
2023-05-21T09:39:18.118Z,101001.00
2023-05-21T09:41:46.110Z,101005.00
2023-05-21T09:44:14.012Z,100998.00
2023-05-21T09:46:42.885Z,100988.00
2023-05-21T09:49:24.706Z,101002.00
2023-05-21T09:51:56.404Z,101006.00
2023-05-21T09:54:24.570Z,100970.00
2023-05-21T09:56:53.646Z,101006.00
2023-05-21T09:59:22.633Z,101002.00
2023-05-21T10:01:53.178Z,101005.00
2023-05-21T10:04:42.632Z,101001.00
2023-05-21T10:07:10.843Z,100994.00
2023-05-21T10:09:39.357Z,100999.00
2023-05-21T10:12:08.403Z,100991.00
2023-05-21T10:14:37.011Z,101001.00
2023-05-21T10:17:07.428Z,100988.00
2023-05-21T10:19:38.730Z,100980.00
2023-05-21T10:22:07.657Z,100978.00
2023-05-21T10:24:36.538Z,100990.00
2023-05-21T10:27:04.969Z,100985.00
2023-05-21T10:29:33.486Z,100975.00
2023-05-21T10:32:03.036Z,100981.00
2023-05-21T10:34:32.198Z,100973.00
2023-05-21T10:37:03.721Z,100977.00
2023-05-21T10:39:32.511Z,100979.00
2023-05-21T10:42:13.028Z,100965.00
2023-05-21T10:44:51.001Z,100965.00
2023-05-21T10:47:42.121Z,100972.00
2023-05-21T10:50:27.769Z,100966.00
2023-05-21T10:53:10.675Z,100959.00
2023-05-21T10:55:49.745Z,100953.00
2023-05-21T10:58:40.939Z,100947.00
2023-05-21T11:01:09.501Z,100956.00
2023-05-21T11:03:38.268Z,100945.00
2023-05-21T11:06:06.907Z,100946.00
2023-05-21T11:08:37.647Z,100937.00
2023-05-21T11:11:06.467Z,100942.00
2023-05-21T11:13:49.898Z,100945.00
2023-05-21T11:16:18.563Z,100925.00
2023-05-21T11:19:03.109Z,100933.00
2023-05-21T11:21:32.463Z,100922.00
2023-05-21T11:24:08.416Z,100930.00
2023-05-21T11:27:08.576Z,100934.00
2023-05-21T11:29:41.758Z,100921.00
2023-05-21T11:32:10.971Z,100927.00
2023-05-21T11:34:40.669Z,100925.00
2023-05-21T11:37:30.254Z,100920.00
2023-05-21T11:40:21.606Z,100893.00
2023-05-21T11:42:53.675Z,100901.00
2023-05-21T11:45:23.310Z,100930.00
2023-05-21T11:47:52.773Z,100919.00
2023-05-21T11:50:21.241Z,100909.00
2023-05-21T11:52:50.633Z,100922.00
2023-05-21T11:55:26.087Z,100915.00
2023-05-21T11:57:55.564Z,100929.00
2023-05-21T12:00:23.658Z,100922.00
2023-05-21T12:02:53.667Z,100924.00
2023-05-21T12:05:24.278Z,100922.00
2023-05-21T12:07:52.261Z,100915.00
2023-05-21T12:10:24.490Z,100914.00
2023-05-21T12:12:56.502Z,100918.00
2023-05-21T12:15:26.372Z,100906.00
2023-05-21T12:17:56.014Z,100913.00
2023-05-21T12:20:24.556Z,100907.00
2023-05-21T12:22:52.815Z,100906.00
2023-05-21T12:25:21.294Z,100906.00
2023-05-21T12:27:58.098Z,100907.00
2023-05-21T12:30:26.998Z,100906.00
2023-05-21T12:32:55.050Z,100903.00
2023-05-21T12:35:24.637Z,100901.00
2023-05-21T12:37:55.063Z,100902.00
2023-05-21T12:40:22.947Z,100904.00
2023-05-21T12:42:53.193Z,100913.00
2023-05-21T12:45:22.888Z,100888.00
2023-05-21T12:47:56.038Z,100906.00
2023-05-21T12:50:25.273Z,100908.00
2023-05-21T12:52:59.789Z,100894.00
2023-05-21T12:55:37.251Z,100914.00
2023-05-21T12:58:09.453Z,100910.00
2023-05-21T13:00:38.468Z,100895.00
2023-05-21T13:03:07.599Z,100900.00
2023-05-21T13:05:36.293Z,100893.00
2023-05-21T13:08:05.643Z,100895.00
2023-05-21T13:10:33.817Z,100888.00
2023-05-21T13:13:02.436Z,100901.00
2023-05-21T13:15:32.103Z,100875.00
2023-05-21T13:18:01.789Z,100875.00
2023-05-21T13:20:30.216Z,100880.00
2023-05-21T13:22:58.606Z,100874.00
2023-05-21T13:25:29.325Z,100861.00
2023-05-21T13:27:58.411Z,100876.00
2023-05-21T13:30:28.836Z,100875.00
2023-05-21T13:32:58.662Z,100859.00
2023-05-21T13:35:30.463Z,100869.00
2023-05-21T13:37:58.607Z,172928.00
2023-05-21T13:40:27.064Z,235518.00
2023-05-21T13:42:57.280Z,235518.00
2023-05-21T13:45:29.582Z,235518.00
2023-05-21T13:48:00.316Z,235518.00
2023-05-21T13:50:28.753Z,235518.00
2023-05-21T13:52:56.927Z,235518.00
2023-05-21T13:55:25.304Z,235518.00
2023-05-21T13:57:53.643Z,235518.00
2023-05-21T14:00:22.173Z,100704.00
2023-05-21T14:02:51.474Z,100819.00
2023-05-21T14:05:21.053Z,100852.00
2023-05-21T14:07:49.776Z,100833.00
2023-05-21T14:10:18.449Z,100839.00
2023-05-21T14:12:47.378Z,100827.00
2023-05-21T14:15:16.206Z,100846.00
2023-05-21T14:17:44.170Z,100844.00
2023-05-21T14:20:12.974Z,100836.00
2023-05-21T14:22:42.553Z,100844.00
2023-05-21T14:25:11.059Z,100849.00
2023-05-21T14:27:40.092Z,100833.00
2023-05-21T14:30:10.301Z,100839.00
2023-05-21T14:32:38.463Z,100838.00
2023-05-21T14:35:07.062Z,100835.00
2023-05-21T14:37:35.054Z,100834.00
2023-05-21T14:40:05.613Z,100829.00
2023-05-21T14:42:33.779Z,100826.00
2023-05-21T14:45:16.808Z,100818.00
2023-05-21T14:47:46.141Z,100831.00
2023-05-21T14:50:14.934Z,100829.00
2023-05-21T14:52:43.655Z,100833.00
2023-05-21T14:55:13.940Z,100844.00
2023-05-21T14:57:41.993Z,100833.00
2023-05-21T15:00:11.672Z,100828.00
2023-05-21T15:02:40.492Z,100836.00
2023-05-21T15:05:09.331Z,100844.00
2023-05-21T15:07:37.377Z,100834.00
2023-05-21T15:10:06.178Z,100835.00
2023-05-21T15:12:35.667Z,100821.00
2023-05-21T15:15:03.825Z,100788.00
2023-05-21T15:17:33.189Z,100833.00
2023-05-21T15:20:04.445Z,100837.00
2023-05-21T15:22:32.732Z,100819.00
2023-05-21T15:25:01.995Z,100818.00
2023-05-21T15:27:29.941Z,100811.00
2023-05-21T15:29:59.585Z,100815.00
2023-05-21T15:32:27.839Z,100809.00
2023-05-21T15:34:55.899Z,100803.00
2023-05-21T15:37:23.954Z,100817.00
2023-05-21T15:39:53.469Z,100815.00
2023-05-21T15:42:21.349Z,100811.00
2023-05-21T15:44:49.432Z,100803.00
2023-05-21T15:47:18.649Z,100805.00
2023-05-21T15:49:46.641Z,100790.00
2023-05-21T15:52:14.490Z,100798.00
2023-05-21T15:54:42.404Z,100792.00
2023-05-21T15:57:10.397Z,100797.00
2023-05-21T15:59:38.343Z,100782.00
2023-05-21T16:02:06.893Z,100782.00
2023-05-21T16:04:36.252Z,100789.00
2023-05-21T16:07:04.201Z,100792.00
2023-05-21T16:09:32.172Z,100788.00
2023-05-21T16:12:00.107Z,100792.00
2023-05-21T16:14:29.428Z,100792.00
2023-05-21T16:16:57.458Z,100792.00
2023-05-21T16:19:25.674Z,100779.00
2023-05-21T16:21:55.161Z,100784.00
2023-05-21T16:24:24.024Z,100783.00
2023-05-21T16:26:52.121Z,100778.00
2023-05-21T16:29:21.987Z,100777.00
2023-05-21T16:31:50.278Z,100779.00
2023-05-21T16:34:18.338Z,100790.00
2023-05-21T16:36:46.414Z,100787.00
2023-05-21T16:39:16.004Z,100782.00
2023-05-21T16:41:44.889Z,100777.00
2023-05-21T16:44:12.802Z,100777.00
2023-05-21T16:46:40.890Z,100775.00
2023-05-21T16:49:08.925Z,100776.00
2023-05-21T16:51:36.836Z,100779.00
2023-05-21T16:54:06.102Z,100767.00
2023-05-21T16:56:35.773Z,100769.00
2023-05-21T16:59:03.831Z,100772.00
2023-05-21T17:01:31.910Z,100781.00
2023-05-21T17:04:00.126Z,100776.00
2023-05-21T17:06:28.391Z,100783.00
2023-05-21T17:08:56.621Z,100784.00
2023-05-21T17:11:24.466Z,100777.00
2023-05-21T17:13:54.041Z,100779.00
2023-05-21T17:16:22.226Z,100784.00
2023-05-21T17:18:51.462Z,100785.00
2023-05-21T17:21:19.821Z,100777.00
2023-05-21T17:23:47.880Z,100773.00
2023-05-21T17:26:17.016Z,100778.00
2023-05-21T17:28:45.037Z,100782.00
2023-05-21T17:31:15.369Z,100781.00
2023-05-21T17:33:43.507Z,100777.00
2023-05-21T17:36:11.659Z,100770.00
2023-05-21T17:38:39.578Z,100781.00
2023-05-21T17:41:07.574Z,100781.00
2023-05-21T17:43:35.453Z,100772.00
2023-05-21T17:46:03.373Z,100765.00
2023-05-21T17:48:32.649Z,100774.00
2023-05-21T17:51:00.750Z,100772.00
2023-05-21T17:53:28.986Z,100778.00
2023-05-21T17:55:57.071Z,100785.00
2023-05-21T17:58:25.095Z,100770.00
2023-05-21T18:00:54.165Z,100792.00
2023-05-21T18:03:22.219Z,100775.00
2023-05-21T18:05:52.104Z,100769.00
2023-05-21T18:08:20.138Z,100775.00
2023-05-21T18:10:48.222Z,100776.00
2023-05-21T18:13:16.436Z,100776.00
2023-05-21T18:15:45.113Z,100786.00
2023-05-21T18:18:19.822Z,100776.00
2023-05-21T18:20:48.889Z,100784.00
2023-05-21T18:23:18.518Z,100767.00
2023-05-21T18:25:46.445Z,100777.00
2023-05-21T18:28:17.175Z,100779.00
2023-05-21T18:31:24.508Z,100782.00
2023-05-21T18:33:56.279Z,100784.00
2023-05-21T18:36:26.887Z,100787.00
2023-05-21T18:38:58.054Z,100777.00
2023-05-21T18:41:26.530Z,100783.00
2023-05-21T18:43:55.830Z,100789.00
2023-05-21T18:46:35.700Z,100785.00
2023-05-21T18:49:07.010Z,100783.00
2023-05-21T18:51:38.989Z,100785.00
2023-05-21T18:54:13.451Z,100785.00
2023-05-21T18:56:45.626Z,100798.00
2023-05-21T18:59:14.400Z,100796.00
2023-05-21T19:01:45.857Z,100793.00
2023-05-21T19:04:15.229Z,100786.00
2023-05-21T19:06:44.612Z,100808.00
2023-05-21T19:09:14.711Z,100777.00
2023-05-21T19:11:43.397Z,100781.00
2023-05-21T19:14:14.316Z,100804.00
2023-05-21T19:16:42.714Z,100803.00
2023-05-21T19:19:10.872Z,100809.00
2023-05-21T19:21:39.153Z,100792.00
2023-05-21T19:24:08.367Z,100798.00
2023-05-21T19:26:37.781Z,100791.00
2023-05-21T19:29:05.857Z,100799.00
2023-05-21T19:31:35.044Z,100793.00
2023-05-21T19:34:04.584Z,100797.00
2023-05-21T19:36:48.461Z,100807.00
2023-05-21T19:39:20.014Z,100803.00
2023-05-21T19:41:49.633Z,100813.00
2023-05-21T19:44:17.637Z,100811.00
2023-05-21T19:46:45.691Z,100806.00
2023-05-21T19:49:14.572Z,100812.00
2023-05-21T19:51:42.640Z,100812.00
2023-05-21T19:54:10.742Z,100797.00
2023-05-21T19:56:39.106Z,100820.00
2023-05-21T19:59:08.740Z,100812.00
2023-05-21T20:01:39.355Z,100811.00
2023-05-21T20:04:08.091Z,100811.00
2023-05-21T20:06:36.178Z,100816.00
2023-05-21T20:09:04.449Z,100815.00
2023-05-21T20:11:32.649Z,100825.00
2023-05-21T20:14:03.026Z,100814.00
2023-05-21T20:16:33.448Z,100814.00
2023-05-21T20:19:02.017Z,100820.00
2023-05-21T20:21:31.726Z,100824.00
2023-05-21T20:23:59.970Z,100825.00
2023-05-21T20:26:27.951Z,100821.00
2023-05-21T20:28:56.040Z,100805.00
2023-05-21T20:31:26.048Z,100833.00
2023-05-21T20:33:55.568Z,100825.00
2023-05-21T20:36:23.820Z,100816.00
2023-05-21T20:38:51.893Z,100808.00
2023-05-21T20:41:21.768Z,100822.00
2023-05-21T20:43:50.029Z,100832.00
2023-05-21T20:46:18.526Z,100814.00
2023-05-21T20:48:48.091Z,100830.00
2023-05-21T20:51:17.541Z,100831.00
2023-05-21T20:53:45.451Z,100818.00
2023-05-21T20:56:14.847Z,100821.00
2023-05-21T20:58:42.753Z,100818.00
2023-05-21T21:01:10.938Z,100826.00
2023-05-21T21:03:41.498Z,100820.00
2023-05-21T21:06:09.908Z,100823.00
2023-05-21T21:08:40.370Z,100834.00
2023-05-21T21:11:09.697Z,100834.00
2023-05-21T21:13:37.711Z,100846.00
2023-05-21T21:16:06.639Z,100836.00
2023-05-21T21:18:34.825Z,100838.00
2023-05-21T21:21:02.893Z,100836.00
2023-05-21T21:23:30.873Z,100843.00
2023-05-21T21:26:01.100Z,100828.00
2023-05-21T21:28:29.128Z,100826.00
2023-05-21T21:30:57.161Z,100837.00
2023-05-21T21:33:26.876Z,100830.00
2023-05-21T21:35:54.976Z,100835.00
2023-05-21T21:38:25.540Z,100839.00
2023-05-21T21:40:54.508Z,100832.00
2023-05-21T21:43:23.822Z,100825.00
2023-05-21T21:45:51.759Z,100820.00
2023-05-21T21:48:22.400Z,100844.00
2023-05-21T21:50:50.310Z,100835.00
2023-05-21T21:53:18.291Z,100828.00
2023-05-21T21:55:46.173Z,100820.00
2023-05-21T21:58:14.142Z,100836.00
2023-05-21T22:00:44.054Z,100825.00
2023-05-21T22:03:14.575Z,100819.00
2023-05-21T22:05:42.881Z,100822.00
2023-05-21T22:08:10.855Z,100835.00
2023-05-21T22:10:39.345Z,100835.00
2023-05-21T22:13:07.595Z,100818.00
2023-05-21T22:15:36.051Z,100829.00
2023-05-21T22:18:05.793Z,100817.00
2023-05-21T22:20:35.174Z,100828.00
2023-05-21T22:23:03.306Z,100828.00
2023-05-21T22:25:31.456Z,100815.00
2023-05-21T22:27:59.382Z,100821.00
2023-05-21T22:30:27.313Z,100808.00
2023-05-21T22:32:55.212Z,100810.00
2023-05-21T22:35:24.621Z,100789.00
2023-05-21T22:37:52.514Z,100800.00
2023-05-21T22:40:20.424Z,100807.00
2023-05-21T22:42:48.567Z,100797.00
2023-05-21T22:45:17.073Z,100811.00
2023-05-21T22:47:45.037Z,100812.00
2023-05-21T22:50:13.038Z,100811.00
2023-05-21T22:52:43.325Z,100800.00
2023-05-21T22:55:11.794Z,100814.00
2023-05-21T22:57:40.848Z,100808.00
2023-05-21T23:00:10.851Z,100819.00
2023-05-21T23:02:38.798Z,100816.00
2023-05-21T23:05:07.226Z,100815.00
2023-05-21T23:07:35.178Z,100805.00
2023-05-21T23:10:04.818Z,100802.00
2023-05-21T23:12:32.665Z,100795.00
2023-05-21T23:15:00.492Z,100805.00
2023-05-21T23:17:28.590Z,100807.00
2023-05-21T23:19:56.606Z,100796.00
2023-05-21T23:22:24.519Z,100810.00
2023-05-21T23:24:54.222Z,100821.00
2023-05-21T23:27:24.033Z,100822.00
2023-05-21T23:29:52.023Z,100806.00
2023-05-21T23:32:19.960Z,100814.00
2023-05-21T23:34:48.365Z,100808.00
2023-05-21T23:37:16.410Z,100820.00
2023-05-21T23:39:48.134Z,100815.00
2023-05-21T23:42:16.489Z,100812.00
2023-05-21T23:44:45.890Z,100803.00
2023-05-21T23:47:13.736Z,100816.00
2023-05-21T23:49:41.807Z,100810.00
2023-05-21T23:52:13.076Z,100786.00
2023-05-21T23:54:41.664Z,100789.00
2023-05-21T23:57:09.553Z,100777.00
2023-05-21T23:59:37.539Z,100793.00
